createdAt,value
2023-08-29T00:04:04.409Z,100548.00
2023-08-29T00:09:07.373Z,100556.34
2023-08-29T00:14:09.949Z,100545.91
2023-08-29T00:19:13.188Z,100545.72
2023-08-29T00:24:16.164Z,100563.16
2023-08-29T00:29:18.723Z,100561.41
2023-08-29T00:34:21.221Z,100562.16
2023-08-29T00:39:24.975Z,100555.63
2023-08-29T00:44:27.858Z,100568.28
2023-08-29T00:49:31.190Z,100566.19
2023-08-29T00:54:34.271Z,100568.06
2023-08-29T00:59:37.174Z,100566.56
2023-08-29T01:04:39.639Z,100566.69
2023-08-29T01:09:42.161Z,100575.69
2023-08-29T01:15:01.096Z,100578.59
2023-08-29T01:20:06.808Z,100584.72
2023-08-29T01:25:31.652Z,100586.34
2023-08-29T01:30:35.615Z,100604.72
2023-08-29T01:35:43.912Z,100597.81
2023-08-29T01:40:47.059Z,100614.91
2023-08-29T01:45:49.604Z,100615.63
2023-08-29T01:50:52.681Z,100618.44
2023-08-29T01:55:56.786Z,100622.38
2023-08-29T02:01:09.761Z,100636.88
2023-08-29T02:06:22.383Z,100638.72
2023-08-29T02:11:24.992Z,100640.59
2023-08-29T02:16:27.577Z,100631.69
2023-08-29T02:21:30.216Z,100643.88
2023-08-29T02:26:32.719Z,100633.03
2023-08-29T02:31:35.307Z,100643.34
2023-08-29T02:36:37.833Z,100647.09
2023-08-29T02:41:40.353Z,100646.19
2023-08-29T02:46:42.929Z,100652.22
2023-08-29T02:51:45.497Z,100649.06
2023-08-29T02:56:48.001Z,100649.13
2023-08-29T03:01:50.526Z,100660.88
2023-08-29T03:06:53.339Z,100653.00
2023-08-29T03:11:56.489Z,100659.75
2023-08-29T03:16:59.030Z,100671.41
2023-08-29T03:22:01.551Z,100673.59
2023-08-29T03:27:05.575Z,100673.91
2023-08-29T03:32:08.138Z,100683.44
2023-08-29T03:37:10.633Z,100691.28
2023-08-29T03:42:13.198Z,100690.66
2023-08-29T03:47:15.672Z,100691.34
2023-08-29T03:52:25.787Z,100698.34
2023-08-29T03:57:28.851Z,100701.97
2023-08-29T04:02:31.433Z,100700.28
2023-08-29T04:07:33.919Z,100726.56
2023-08-29T04:12:36.410Z,100721.66
2023-08-29T04:17:39.011Z,100726.53
2023-08-29T04:22:41.535Z,100737.56
2023-08-29T04:27:45.412Z,100732.66
2023-08-29T04:32:52.156Z,100743.06
2023-08-29T04:37:55.933Z,100738.75
2023-08-29T04:42:58.508Z,100741.84
2023-08-29T04:48:01.072Z,100746.31
2023-08-29T04:53:05.337Z,100748.13
2023-08-29T04:58:08.380Z,100762.34
2023-08-29T05:03:11.297Z,100765.56
2023-08-29T05:08:13.910Z,100766.19
2023-08-29T05:13:16.565Z,100774.63
2023-08-29T05:18:19.223Z,100774.03
2023-08-29T05:23:21.701Z,100785.88
2023-08-29T05:28:24.297Z,100787.13
2023-08-29T05:33:26.769Z,100798.00
2023-08-29T05:38:29.447Z,100800.25
2023-08-29T05:43:32.214Z,100807.75
2023-08-29T05:48:34.736Z,100811.81
2023-08-29T05:53:37.597Z,100808.91
2023-08-29T05:58:39.917Z,100804.84
2023-08-29T06:03:42.669Z,100811.00
2023-08-29T06:08:46.049Z,100822.34
2023-08-29T06:13:48.600Z,100813.00
2023-08-29T06:18:51.185Z,100818.53
2023-08-29T06:23:53.776Z,100817.75
2023-08-29T06:28:56.259Z,100816.91
2023-08-29T06:33:58.857Z,100813.91
2023-08-29T06:39:02.422Z,100825.66
2023-08-29T06:44:05.187Z,100825.13
2023-08-29T06:49:09.194Z,100820.88
2023-08-29T06:54:11.775Z,100816.34
2023-08-29T06:59:14.124Z,100818.63
2023-08-29T07:04:18.117Z,100812.66
2023-08-29T07:09:20.598Z,100811.31
2023-08-29T07:14:23.041Z,100806.06
2023-08-29T07:19:26.072Z,100809.28
2023-08-29T07:24:28.567Z,100793.94
2023-08-29T07:29:31.614Z,100789.13
2023-08-29T07:34:34.227Z,100785.31
2023-08-29T07:39:36.789Z,100780.22
2023-08-29T07:44:39.261Z,100789.47
2023-08-29T07:49:41.775Z,100787.41
2023-08-29T07:54:44.239Z,100788.84
2023-08-29T07:59:46.832Z,100779.44
2023-08-29T08:04:49.366Z,100776.44
2023-08-29T08:09:51.711Z,100787.22
2023-08-29T08:14:54.947Z,100787.19
2023-08-29T08:19:57.756Z,100785.75
2023-08-29T08:25:00.264Z,100781.44
2023-08-29T08:30:02.916Z,100786.53
2023-08-29T08:35:08.140Z,100777.22
2023-08-29T08:40:12.545Z,100789.00
2023-08-29T08:45:16.116Z,100781.56
2023-08-29T08:50:19.157Z,100769.19
2023-08-29T08:55:21.749Z,100775.97
2023-08-29T09:00:24.249Z,100765.91
2023-08-29T09:05:26.972Z,100767.31
2023-08-29T09:10:34.814Z,100764.69
2023-08-29T09:15:39.631Z,100750.72
2023-08-29T09:20:45.275Z,100766.53
2023-08-29T09:25:54.583Z,100765.84
2023-08-29T09:31:05.743Z,100751.97
2023-08-29T09:36:08.822Z,100760.00
2023-08-29T09:41:17.505Z,100752.19
2023-08-29T09:46:26.029Z,100746.84
2023-08-29T09:51:31.535Z,100752.03
2023-08-29T09:56:35.919Z,100746.66
2023-08-29T10:01:41.047Z,100737.69
2023-08-29T10:06:46.457Z,100737.13
2023-08-29T10:11:54.853Z,100747.94
2023-08-29T10:17:00.278Z,100749.50
2023-08-29T10:22:03.646Z,100732.72
2023-08-29T10:27:06.198Z,100736.41
2023-08-29T10:32:09.188Z,100729.34
2023-08-29T10:37:20.729Z,100718.94
2023-08-29T10:42:23.311Z,100716.63
2023-08-29T10:47:28.323Z,100715.81
2023-08-29T10:52:41.735Z,100722.75
2023-08-29T10:57:44.361Z,100717.72
2023-08-29T11:02:46.888Z,100712.84
2023-08-29T11:07:49.518Z,100718.31
2023-08-29T11:13:09.528Z,100712.50
2023-08-29T11:18:22.565Z,100715.66
2023-08-29T11:23:27.084Z,100720.50
2023-08-29T11:28:32.377Z,100716.25
2023-08-29T11:33:36.686Z,100715.94
2023-08-29T11:38:39.369Z,100706.97
2023-08-29T11:44:51.486Z,100712.50
2023-08-29T11:49:15.126Z,100714.00
2023-08-29T11:54:46.678Z,100710.72
2023-08-29T11:59:51.935Z,100701.75
2023-08-29T12:04:58.456Z,100696.00
2023-08-29T12:10:12.147Z,100693.03
2023-08-29T12:15:27.638Z,100678.75
2023-08-29T12:20:35.135Z,100679.69
2023-08-29T12:25:37.652Z,100692.44
2023-08-29T12:30:40.123Z,100693.09
2023-08-29T12:35:42.579Z,100689.44
2023-08-29T12:40:45.620Z,100690.31
2023-08-29T12:45:58.084Z,100691.97
2023-08-29T12:51:02.685Z,100707.66
2023-08-29T12:56:05.385Z,100704.69
2023-08-29T13:01:08.039Z,100697.88
2023-08-29T13:06:10.694Z,100706.06
2023-08-29T13:11:13.284Z,100704.44
2023-08-29T13:16:19.463Z,100697.97
2023-08-29T13:21:22.044Z,100700.88
2023-08-29T13:26:24.855Z,100708.75
2023-08-29T13:31:27.548Z,100710.47
2023-08-29T13:36:32.740Z,100714.19
2023-08-29T13:41:35.643Z,100708.53
2023-08-29T13:46:38.480Z,100724.84
2023-08-29T13:51:41.095Z,100714.28
2023-08-29T13:56:45.775Z,100718.78
2023-08-29T14:01:48.270Z,100720.44
2023-08-29T14:06:50.895Z,100726.94
2023-08-29T14:11:53.394Z,100720.88
2023-08-29T14:16:56.081Z,100736.31
2023-08-29T14:21:58.642Z,100729.41
2023-08-29T14:27:01.132Z,100733.06
2023-08-29T14:32:03.672Z,100732.22
2023-08-29T14:37:06.447Z,100741.16
2023-08-29T14:42:09.548Z,100741.97
2023-08-29T14:47:12.095Z,100726.09
2023-08-29T14:52:14.498Z,100734.59
2023-08-29T14:57:17.118Z,100736.22
2023-08-29T15:02:20.624Z,100737.38
2023-08-29T15:07:24.980Z,100737.38
2023-08-29T15:12:27.460Z,100755.59
2023-08-29T15:17:31.276Z,100759.63
2023-08-29T15:22:33.886Z,100763.59
2023-08-29T15:32:39.486Z,100779.25
2023-08-29T15:37:42.013Z,100781.66
2023-08-29T15:42:45.474Z,100788.88
2023-08-29T15:47:48.090Z,100796.88
2023-08-29T15:52:50.598Z,100803.16
2023-08-29T15:57:53.111Z,100818.72
2023-08-29T16:02:55.695Z,100822.59
2023-08-29T16:07:58.669Z,100826.03
2023-08-29T16:13:01.674Z,100837.72
2023-08-29T16:18:05.844Z,100846.78
2023-08-29T16:23:08.978Z,100861.13
2023-08-29T16:28:13.826Z,100864.94
2023-08-29T16:33:16.602Z,100864.84
2023-08-29T16:38:19.280Z,100873.13
2023-08-29T16:43:21.927Z,100874.53
2023-08-29T16:48:24.523Z,100873.97
2023-08-29T16:53:27.149Z,100890.44
2023-08-29T16:58:29.940Z,100898.41
2023-08-29T17:03:32.711Z,100899.44
2023-08-29T17:08:35.454Z,100891.88
2023-08-29T17:13:37.959Z,100900.63
2023-08-29T17:18:40.562Z,100899.97
2023-08-29T17:23:43.124Z,100906.31
2023-08-29T17:28:45.633Z,100894.03
2023-08-29T17:33:48.233Z,100906.56
2023-08-29T17:38:50.769Z,100902.47
2023-08-29T17:43:53.236Z,100913.25
2023-08-29T17:48:55.754Z,100909.69
2023-08-29T17:53:58.242Z,100914.31
2023-08-29T17:59:00.756Z,100908.41
2023-08-29T18:04:08.364Z,100923.44
2023-08-29T18:09:10.848Z,100915.69
2023-08-29T18:14:13.375Z,100919.97
2023-08-29T18:19:18.943Z,100924.66
2023-08-29T18:24:21.698Z,100932.31
2023-08-29T18:29:24.176Z,100934.22
2023-08-29T18:34:26.620Z,100941.34
2023-08-29T18:39:29.070Z,100949.91
2023-08-29T18:44:31.635Z,100963.53
2023-08-29T18:49:35.773Z,100959.63
2023-08-29T18:54:38.261Z,100953.69
2023-08-29T18:59:40.738Z,100953.09
2023-08-29T19:04:44.414Z,100948.41
2023-08-29T19:09:46.879Z,100939.13
2023-08-29T19:14:49.492Z,100953.97
2023-08-29T19:19:52.061Z,100959.19
2023-08-29T19:24:55.781Z,100959.09
2023-08-29T19:29:58.489Z,100961.00
2023-08-29T19:35:00.977Z,100959.56
2023-08-29T19:40:03.848Z,100949.88
2023-08-29T19:45:07.239Z,100956.28
2023-08-29T19:50:10.587Z,100961.09
2023-08-29T19:55:13.083Z,100966.78
2023-08-29T20:00:16.101Z,100966.22
2023-08-29T20:05:18.626Z,100951.66
2023-08-29T20:10:21.108Z,100951.56
2023-08-29T20:15:23.561Z,100954.66
2023-08-29T20:20:27.006Z,100964.91
2023-08-29T20:25:29.824Z,100970.56
2023-08-29T20:30:35.588Z,100974.56
2023-08-29T20:35:38.842Z,100966.81
2023-08-29T20:40:42.860Z,100970.47
2023-08-29T20:45:45.387Z,100967.44
2023-08-29T20:50:51.250Z,100962.59
2023-08-29T20:55:53.804Z,100974.97
2023-08-29T21:06:20.514Z,100976.78
2023-08-29T21:11:23.114Z,100979.59
2023-08-29T21:16:25.758Z,100992.06
2023-08-29T21:21:28.314Z,100992.41
2023-08-29T21:26:31.187Z,100995.75
2023-08-29T21:31:33.760Z,100997.06
2023-08-29T21:36:38.571Z,100987.69
2023-08-29T21:41:41.577Z,100996.72
2023-08-29T21:46:44.984Z,100996.97
2023-08-29T21:51:48.497Z,100993.56
2023-08-29T21:56:51.124Z,101001.56
2023-08-29T22:01:54.918Z,100998.06
2023-08-29T22:06:57.493Z,101006.41
2023-08-29T22:11:59.979Z,101005.47
2023-08-29T22:17:02.970Z,101002.78
2023-08-29T22:22:05.472Z,101005.25
2023-08-29T22:27:08.134Z,101007.13
2023-08-29T22:32:10.644Z,101013.78
2023-08-29T22:37:16.340Z,101015.13
2023-08-29T22:42:18.914Z,101018.97
2023-08-29T22:47:21.440Z,101026.94
2023-08-29T22:52:24.781Z,101009.56
2023-08-29T22:57:27.270Z,101008.63
2023-08-29T23:02:29.901Z,101000.75
2023-08-29T23:07:32.660Z,101003.84
2023-08-29T23:12:36.176Z,100986.78
2023-08-29T23:17:38.727Z,101001.50
2023-08-29T23:22:41.253Z,100997.63
2023-08-29T23:27:44.143Z,100998.19
2023-08-29T23:32:49.422Z,101003.72
2023-08-29T23:37:52.069Z,101000.66
2023-08-29T23:42:54.775Z,100999.03
2023-08-29T23:47:57.281Z,101003.47
2023-08-29T23:53:00.465Z,101013.34
2023-08-29T23:58:03.024Z,101024.34
